createdAt,value
2022-09-07T00:02:33.725Z,56.46
2022-09-07T00:07:35.355Z,56.42
2022-09-07T00:12:37.156Z,56.99
2022-09-07T00:17:39.323Z,57.05
2022-09-07T00:22:40.998Z,57.64
2022-09-07T00:27:42.604Z,57.71
2022-09-07T00:32:44.187Z,57.91
2022-09-07T00:37:45.765Z,57.55
2022-09-07T00:42:47.356Z,57.47
2022-09-07T00:47:57.813Z,57.98
2022-09-07T00:53:07.130Z,58.12
2022-09-07T00:58:09.875Z,58.77
2022-09-07T01:03:12.590Z,58.89
2022-09-07T01:08:14.397Z,59.21
2022-09-07T01:13:16.488Z,58.82
2022-09-07T01:18:45.583Z,58.84
2022-09-07T01:24:17.386Z,58.89
2022-09-07T01:29:25.039Z,59.15
2022-09-07T01:34:26.751Z,59.34
2022-09-07T01:39:46.085Z,59.17
2022-09-07T01:44:57.916Z,59.64
2022-09-07T01:50:12.103Z,59.54
2022-09-07T01:55:19.316Z,59.60
2022-09-07T02:00:21.042Z,59.56
2022-09-07T02:05:29.841Z,59.55
2022-09-07T02:10:47.633Z,60.02
2022-09-07T02:16:03.345Z,60.05
2022-09-07T02:21:08.020Z,59.89
2022-09-07T02:26:15.401Z,59.86
2022-09-07T02:31:17.260Z,59.98
2022-09-07T02:36:24.890Z,59.70
2022-09-07T02:41:36.901Z,59.77
2022-09-07T02:46:38.592Z,59.93
2022-09-07T02:51:50.797Z,60.00
2022-09-07T02:56:55.354Z,59.74
2022-09-07T03:01:59.921Z,59.57
2022-09-07T03:07:13.992Z,59.49
2022-09-07T03:12:16.784Z,59.54
2022-09-07T03:17:18.549Z,59.58
2022-09-07T03:22:20.111Z,59.68
2022-09-07T03:27:21.683Z,59.54
2022-09-07T03:32:23.261Z,59.76
2022-09-07T03:37:25.406Z,59.74
2022-09-07T03:42:26.976Z,59.77
2022-09-07T03:47:28.678Z,60.24
2022-09-07T03:52:30.285Z,59.81
2022-09-07T03:57:31.900Z,59.67
2022-09-07T04:02:33.577Z,59.41
2022-09-07T04:07:35.218Z,59.18
2022-09-07T04:12:36.847Z,59.68
2022-09-07T04:17:38.484Z,59.24
2022-09-07T04:22:40.046Z,59.30
2022-09-07T04:27:41.682Z,59.59
2022-09-07T04:32:43.298Z,59.62
2022-09-07T04:37:45.381Z,59.40
2022-09-07T04:42:47.052Z,59.58
2022-09-07T04:47:49.300Z,59.51
2022-09-07T04:52:50.868Z,59.52
2022-09-07T04:57:52.479Z,59.53
2022-09-07T05:02:54.086Z,59.60
2022-09-07T05:07:55.688Z,59.55
2022-09-07T05:12:57.631Z,59.33
2022-09-07T05:17:59.191Z,58.80
2022-09-07T05:23:00.812Z,58.39
2022-09-07T05:28:02.643Z,58.81
2022-09-07T05:33:05.274Z,58.42
2022-09-07T05:38:06.915Z,58.54
2022-09-07T05:43:10.452Z,58.45
2022-09-07T05:48:12.027Z,58.04
2022-09-07T05:53:13.873Z,57.75
2022-09-07T05:58:15.975Z,57.77
2022-09-07T06:03:17.734Z,57.08
2022-09-07T06:08:19.410Z,56.70
2022-09-07T06:13:21.002Z,56.68
2022-09-07T06:18:22.610Z,56.38
2022-09-07T06:23:24.193Z,55.68
2022-09-07T06:28:40.006Z,55.60
2022-09-07T06:33:43.479Z,55.49
2022-09-07T06:38:46.993Z,55.72
2022-09-07T06:43:48.876Z,55.68
2022-09-07T06:48:56.830Z,55.39
2022-09-07T06:59:21.515Z,54.92
2022-09-07T07:04:23.191Z,54.76
2022-09-07T07:09:24.855Z,54.29
2022-09-07T07:14:28.127Z,54.43
2022-09-07T07:19:30.599Z,54.08
2022-09-07T07:24:32.207Z,53.89
2022-09-07T07:29:34.054Z,55.39
2022-09-07T07:34:35.677Z,54.04
2022-09-07T07:50:35.739Z,53.92
2022-09-07T07:55:45.087Z,52.73
2022-09-07T08:00:55.825Z,53.50
2022-09-07T08:06:05.019Z,52.80
2022-09-07T08:11:09.133Z,51.70
2022-09-07T08:16:11.897Z,52.59
2022-09-07T08:21:15.525Z,52.19
2022-09-07T08:26:17.047Z,52.28
2022-09-07T08:31:18.709Z,52.14
2022-09-07T08:36:21.154Z,51.93
2022-09-07T08:41:52.383Z,51.76
2022-09-07T08:46:58.608Z,51.66
2022-09-07T08:52:14.259Z,50.55
2022-09-07T08:57:23.247Z,50.86
2022-09-07T09:02:27.828Z,50.97
2022-09-07T09:07:50.108Z,51.52
2022-09-07T09:13:09.748Z,50.08
2022-09-07T09:18:25.916Z,50.82
2022-09-07T09:23:34.249Z,50.22
2022-09-07T09:28:36.008Z,50.02
2022-09-07T09:33:37.922Z,50.63
2022-09-07T09:38:40.826Z,49.35
2022-09-07T09:43:55.111Z,49.65
2022-09-07T09:49:05.615Z,48.86
2022-09-07T09:54:27.463Z,49.26
2022-09-07T10:04:53.056Z,49.02
2022-09-07T10:09:56.427Z,49.12
2022-09-07T10:14:59.788Z,49.13
2022-09-07T10:20:04.118Z,48.19
2022-09-07T10:25:30.683Z,48.54
2022-09-07T10:30:41.852Z,50.00
2022-09-07T10:36:01.630Z,48.75
2022-09-07T10:41:07.404Z,47.92
2022-09-07T10:52:10.028Z,49.79
2022-09-07T10:57:40.473Z,49.60
2022-09-07T11:08:21.368Z,50.21
2022-09-07T11:13:30.123Z,49.86
2022-09-07T11:24:37.652Z,48.86
2022-09-07T11:29:50.822Z,50.30
2022-09-07T11:34:58.754Z,48.42
2022-09-07T11:40:24.684Z,49.23
2022-09-07T11:45:46.562Z,48.77
2022-09-07T11:50:57.664Z,49.79
2022-09-07T11:56:07.380Z,48.50
2022-09-07T12:01:39.590Z,49.33
2022-09-07T12:07:04.484Z,49.77
2022-09-07T12:12:17.872Z,49.08
2022-09-07T12:17:47.327Z,50.39
2022-09-07T12:23:05.694Z,49.73
2022-09-07T12:28:36.180Z,50.19
2022-09-07T12:33:39.841Z,49.88
2022-09-07T12:39:06.250Z,49.91
2022-09-07T12:44:15.607Z,50.38
2022-09-07T12:49:23.235Z,49.72
2022-09-07T12:54:30.895Z,52.03
2022-09-07T12:59:35.295Z,49.47
2022-09-07T13:05:03.901Z,49.87
2022-09-07T13:10:23.592Z,50.34
2022-09-07T13:15:44.895Z,49.97
2022-09-07T13:21:09.313Z,49.93
2022-09-07T13:26:32.414Z,50.35
2022-09-07T13:32:15.848Z,49.85
2022-09-07T13:37:27.938Z,49.61
2022-09-07T13:42:33.135Z,49.41
2022-09-07T13:47:37.458Z,48.92
2022-09-07T13:53:23.374Z,48.73
2022-09-07T13:58:27.595Z,49.87
2022-09-07T14:03:50.150Z,50.45
2022-09-07T14:08:57.550Z,50.58
2022-09-07T14:14:27.765Z,50.32
2022-09-07T14:19:39.403Z,50.05
2022-09-07T14:24:50.015Z,50.66
2022-09-07T14:29:52.112Z,51.22
2022-09-07T14:34:54.009Z,50.21
2022-09-07T14:39:56.247Z,51.45
2022-09-07T14:45:22.835Z,50.55
2022-09-07T14:50:32.655Z,50.71
2022-09-07T14:55:44.674Z,51.48
2022-09-07T15:01:37.260Z,51.06
2022-09-07T15:07:00.955Z,50.92
2022-09-07T15:11:36.227Z,51.28
2022-09-07T15:16:43.846Z,52.83
2022-09-07T15:21:45.568Z,52.82
2022-09-07T15:27:04.498Z,52.21
2022-09-07T15:32:09.936Z,53.24
2022-09-07T15:47:56.394Z,53.65
2022-09-07T15:53:00.986Z,54.17
2022-09-07T15:58:11.470Z,54.55
2022-09-07T16:03:13.655Z,54.38
2022-09-07T16:13:37.362Z,55.15
2022-09-07T16:18:39.993Z,55.47
2022-09-07T16:23:45.237Z,55.72
2022-09-07T16:28:48.789Z,55.84
2022-09-07T16:33:50.563Z,56.42
2022-09-07T16:38:57.232Z,57.07
2022-09-07T16:43:59.573Z,56.30
2022-09-07T16:49:01.859Z,56.74
2022-09-07T16:54:03.737Z,57.29
2022-09-07T16:59:06.681Z,56.91
2022-09-07T17:04:11.289Z,57.17
2022-09-07T17:09:14.519Z,58.11
2022-09-07T17:14:16.111Z,57.94
2022-09-07T17:19:33.362Z,58.50
2022-09-07T17:24:34.983Z,58.71
2022-09-07T17:29:37.833Z,58.92
2022-09-07T17:34:39.405Z,60.22
2022-09-07T17:39:41.354Z,59.84
2022-09-07T17:44:42.985Z,59.80
2022-09-07T17:49:45.058Z,59.77
2022-09-07T17:54:47.282Z,59.90
2022-09-07T18:05:11.657Z,60.51
2022-09-07T18:10:13.498Z,60.82
2022-09-07T18:15:16.116Z,60.42
2022-09-07T18:20:19.021Z,60.07
2022-09-07T18:25:20.672Z,60.70
2022-09-07T18:30:22.246Z,60.71
2022-09-07T18:35:24.428Z,60.88
2022-09-07T18:40:25.967Z,61.61
2022-09-07T18:45:28.028Z,62.10
2022-09-07T18:50:29.759Z,62.38
2022-09-07T18:55:32.316Z,61.87
2022-09-07T19:00:34.511Z,62.61
2022-09-07T19:05:52.860Z,62.97
2022-09-07T19:10:54.691Z,63.32
2022-09-07T19:16:14.649Z,63.52
2022-09-07T19:21:21.617Z,63.80
2022-09-07T19:26:24.901Z,63.59
2022-09-07T19:31:28.249Z,64.12
2022-09-07T19:36:32.401Z,64.22
2022-09-07T19:41:34.818Z,64.43
2022-09-07T19:46:36.527Z,64.72
2022-09-07T19:51:39.505Z,65.42
2022-09-07T19:56:42.856Z,65.66
2022-09-07T20:01:46.810Z,64.99
2022-09-07T20:06:50.300Z,65.24
2022-09-07T20:11:52.056Z,65.64
2022-09-07T20:16:53.607Z,66.42
2022-09-07T20:21:55.864Z,66.17
2022-09-07T20:26:57.436Z,66.08
2022-09-07T20:32:01.237Z,67.10
2022-09-07T20:37:02.884Z,66.34
2022-09-07T20:42:06.725Z,66.51
2022-09-07T20:47:08.317Z,67.02
2022-09-07T20:52:09.887Z,67.24
2022-09-07T20:57:11.452Z,67.58
2022-09-07T21:02:13.041Z,67.66
2022-09-07T21:07:14.663Z,67.80
2022-09-07T21:12:16.428Z,67.67
2022-09-07T21:17:17.986Z,68.00
2022-09-07T21:22:19.632Z,68.01
2022-09-07T21:27:21.197Z,68.22
2022-09-07T21:32:22.721Z,68.81
2022-09-07T21:37:24.289Z,68.58
2022-09-07T21:42:25.806Z,68.57
2022-09-07T21:47:27.341Z,68.52
2022-09-07T21:52:28.890Z,68.67
2022-09-07T21:57:30.496Z,69.07
2022-09-07T22:02:32.041Z,69.22
2022-09-07T22:07:34.536Z,69.45
2022-09-07T22:12:36.075Z,69.58
2022-09-07T22:17:37.669Z,69.81
2022-09-07T22:22:39.222Z,69.86
2022-09-07T22:27:40.892Z,69.84
2022-09-07T22:32:49.763Z,69.69
2022-09-07T22:37:51.298Z,69.99
2022-09-07T22:42:52.827Z,70.27
2022-09-07T22:47:54.364Z,70.53
2022-09-07T22:52:55.892Z,70.52
2022-09-07T22:57:57.432Z,72.27
2022-09-07T23:02:59.027Z,71.32
2022-09-07T23:08:00.589Z,71.44
2022-09-07T23:13:05.288Z,71.93
2022-09-07T23:18:06.827Z,72.21
2022-09-07T23:23:09.238Z,72.60
2022-09-07T23:28:12.419Z,72.78
2022-09-07T23:33:14.408Z,72.90
2022-09-07T23:38:16.082Z,73.57
2022-09-07T23:43:17.772Z,73.82
2022-09-07T23:48:20.420Z,73.56
2022-09-07T23:53:22.438Z,73.97
2022-09-07T23:58:24.547Z,74.50
